createdAt,value
2019-04-03T00:00:16.791Z,96688.72
2019-04-03T00:01:21.067Z,96696.06
2019-04-03T00:02:27.525Z,96691.98
2019-04-03T00:03:31.087Z,96697.88
2019-04-03T00:04:38.213Z,96685.52
2019-04-03T00:05:41.166Z,96681.09
2019-04-03T00:06:46.867Z,96672.30
2019-04-03T00:07:49.885Z,96680.04
2019-04-03T00:08:53.253Z,96680.04
2019-04-03T00:09:56.443Z,96680.35
2019-04-03T00:11:08.648Z,96680.35
2019-04-03T00:12:10.963Z,96681.09
2019-04-03T00:13:14.659Z,96672.98
2019-04-03T00:14:17.813Z,96672.98
2019-04-03T00:15:21.370Z,96671.63
2019-04-03T00:16:24.607Z,96666.97
2019-04-03T00:17:27.601Z,96669.48
2019-04-03T00:18:30.626Z,96670.48
2019-04-03T00:19:33.783Z,96670.48
2019-04-03T00:20:36.889Z,96661.43
2019-04-03T00:21:40.160Z,96667.55
2019-04-03T00:22:45.920Z,96666.28
2019-04-03T00:23:48.294Z,96669.27
2019-04-03T00:24:52.597Z,96668.13
2019-04-03T00:25:55.853Z,96668.13
2019-04-03T00:26:58.883Z,96668.95
2019-04-03T00:28:03.621Z,96669.67
2019-04-03T00:29:13.938Z,96666.69
2019-04-03T00:30:17.200Z,96670.53
2019-04-03T00:31:21.600Z,96661.80
2019-04-03T00:32:25.362Z,96653.43
2019-04-03T00:33:28.357Z,96656.95
2019-04-03T00:34:34.337Z,96652.97
2019-04-03T00:35:37.996Z,96652.61
2019-04-03T00:36:41.081Z,96652.61
2019-04-03T00:37:44.023Z,96647.45
2019-04-03T00:38:46.965Z,96656.28
2019-04-03T00:39:49.998Z,96656.95
2019-04-03T00:40:54.316Z,96663.70
2019-04-03T00:41:57.898Z,96662.70
2019-04-03T00:43:00.955Z,96662.70
2019-04-03T00:44:04.142Z,96661.52
2019-04-03T00:45:07.741Z,96671.02
2019-04-03T00:46:10.855Z,96670.13
2019-04-03T00:47:14.173Z,96671.07
2019-04-03T00:48:17.223Z,96673.11
2019-04-03T00:49:20.274Z,96667.45
2019-04-03T00:50:23.439Z,96667.45
2019-04-03T00:51:28.060Z,96669.36
2019-04-03T00:52:31.306Z,96677.19
2019-04-03T00:53:34.602Z,96667.33
2019-04-03T00:54:37.621Z,96663.16
2019-04-03T00:55:41.004Z,96673.62
2019-04-03T00:56:43.821Z,96673.62
2019-04-03T00:57:47.245Z,96672.22
2019-04-03T00:58:50.565Z,96669.14
2019-04-03T00:59:54.683Z,96667.86
2019-04-03T01:00:58.469Z,96669.22
2019-04-03T01:02:01.314Z,96672.71
2019-04-03T01:03:04.214Z,96672.16
2019-04-03T01:04:07.061Z,96670.25
2019-04-03T01:05:09.902Z,96671.61
2019-04-03T01:06:15.768Z,96671.61
2019-04-03T01:07:18.766Z,96672.84
2019-04-03T01:08:22.053Z,96673.22
2019-04-03T01:09:24.952Z,96674.52
2019-04-03T01:10:29.567Z,96671.86
2019-04-03T01:11:32.315Z,96671.86
2019-04-03T01:12:35.164Z,96664.52
2019-04-03T01:13:38.142Z,96670.08
2019-04-03T01:14:45.887Z,96659.62
2019-04-03T01:15:49.451Z,96661.30
2019-04-03T01:16:52.689Z,96661.30
2019-04-03T01:17:57.412Z,96661.88
2019-04-03T01:19:00.724Z,96651.38
2019-04-03T01:20:06.054Z,96660.38
2019-04-03T01:21:08.452Z,96660.38
2019-04-03T01:22:11.314Z,96638.84
2019-04-03T01:23:14.155Z,96638.84
2019-04-03T01:24:17.363Z,96639.01
2019-04-03T01:25:20.177Z,96639.01
2019-04-03T01:26:23.002Z,96628.91
2019-04-03T01:27:25.812Z,96621.76
2019-04-03T01:28:29.087Z,96619.84
2019-04-03T01:29:31.992Z,96619.84
2019-04-03T01:30:35.505Z,96622.62
2019-04-03T01:31:38.775Z,96616.05
2019-04-03T01:32:41.994Z,96616.99
2019-04-03T01:33:46.882Z,96609.98
2019-04-03T01:34:52.132Z,96612.69
2019-04-03T01:35:55.044Z,96611.11
2019-04-03T01:36:58.253Z,96611.11
2019-04-03T01:38:01.065Z,96612.03
2019-04-03T01:39:04.336Z,96604.23
2019-04-03T01:40:07.161Z,96603.24
2019-04-03T01:41:10.020Z,96595.09
2019-04-03T01:42:12.911Z,96602.52
2019-04-03T01:43:16.045Z,96599.39
2019-04-03T01:44:18.964Z,96601.58
2019-04-03T01:45:21.815Z,96606.23
2019-04-03T01:46:27.142Z,96602.30
2019-04-03T01:47:29.181Z,96602.30
2019-04-03T01:48:32.058Z,96595.73
2019-04-03T01:49:35.243Z,96595.73
2019-04-03T01:50:38.085Z,96607.15
2019-04-03T01:51:40.920Z,96610.09
2019-04-03T01:52:43.808Z,96610.09
2019-04-03T01:53:46.644Z,96612.58
2019-04-03T01:54:57.181Z,96612.58
2019-04-03T01:56:01.262Z,96616.74
2019-04-03T01:57:06.224Z,96618.88
2019-04-03T01:58:08.726Z,96618.88
2019-04-03T01:59:11.547Z,96616.08
2019-04-03T02:00:14.385Z,96622.50
2019-04-03T02:01:17.698Z,96626.36
2019-04-03T02:02:20.621Z,96619.42
2019-04-03T02:03:24.026Z,96620.59
2019-04-03T02:04:27.285Z,96621.06
2019-04-03T02:05:32.960Z,96625.13
2019-04-03T02:06:35.798Z,96620.78
2019-04-03T02:07:39.317Z,96620.78
2019-04-03T02:08:44.269Z,96614.44
2019-04-03T02:09:47.383Z,96614.52
2019-04-03T02:10:50.208Z,96616.52
2019-04-03T02:11:53.091Z,96613.39
2019-04-03T02:12:56.054Z,96616.74
2019-04-03T02:13:59.239Z,96618.23
2019-04-03T02:15:02.105Z,96619.42
2019-04-03T02:16:06.180Z,96621.59
2019-04-03T02:17:12.957Z,96621.59
2019-04-03T02:18:15.898Z,96633.95
2019-04-03T02:19:18.732Z,96633.95
2019-04-03T02:20:21.857Z,96635.91
2019-04-03T02:21:27.277Z,96632.06
2019-04-03T02:22:30.082Z,96634.36
2019-04-03T02:23:33.046Z,96634.36
2019-04-03T02:24:35.914Z,96631.11
2019-04-03T02:25:38.734Z,96631.69
2019-04-03T02:26:43.535Z,96638.48
2019-04-03T02:27:46.498Z,96638.48
2019-04-03T02:28:50.346Z,96629.84
2019-04-03T02:29:53.429Z,96635.63
2019-04-03T02:30:56.847Z,96635.63
2019-04-03T02:32:00.603Z,96635.55
2019-04-03T02:33:03.917Z,96638.26
2019-04-03T02:34:06.876Z,96638.26
2019-04-03T02:35:09.747Z,96638.03
2019-04-03T02:36:13.170Z,96633.05
2019-04-03T02:37:16.987Z,96619.20
2019-04-03T02:38:22.684Z,96630.02
2019-04-03T02:39:28.695Z,96630.02
2019-04-03T02:40:33.069Z,96620.02
2019-04-03T02:41:37.397Z,96623.73
2019-04-03T02:42:41.915Z,96615.58
2019-04-03T02:43:46.311Z,96608.34
2019-04-03T02:44:51.245Z,96607.03
2019-04-03T02:45:56.322Z,96603.09
2019-04-03T02:47:01.064Z,96592.95
2019-04-03T02:48:05.659Z,96592.95
2019-04-03T02:49:10.191Z,96584.72
2019-04-03T02:50:14.400Z,96584.36
2019-04-03T02:51:19.784Z,96589.23
2019-04-03T02:52:24.145Z,96589.92
2019-04-03T02:53:27.536Z,96589.92
2019-04-03T02:54:34.666Z,96582.59
2019-04-03T02:55:39.040Z,96588.88
2019-04-03T02:56:40.830Z,96595.31
2019-04-03T02:57:48.445Z,96593.22
2019-04-03T02:58:53.942Z,96600.30
2019-04-03T02:59:58.785Z,96600.30
2019-04-03T03:01:06.996Z,96601.45
2019-04-03T03:02:06.741Z,96603.85
2019-04-03T03:03:09.552Z,96603.20
2019-04-03T03:04:12.706Z,96598.69
2019-04-03T03:05:15.590Z,96598.69
2019-04-03T03:06:18.524Z,96594.44
2019-04-03T03:07:21.355Z,96594.44
2019-04-03T03:08:24.523Z,96587.61
2019-04-03T03:09:27.792Z,96593.40
2019-04-03T03:10:31.846Z,96585.26
2019-04-03T03:11:35.086Z,96585.81
2019-04-03T03:12:39.560Z,96589.97
2019-04-03T03:13:42.899Z,96595.53
2019-04-03T03:14:45.912Z,96586.66
2019-04-03T03:15:48.870Z,96589.02
2019-04-03T03:16:52.499Z,96596.73
2019-04-03T03:17:56.353Z,96589.05
2019-04-03T03:19:00.859Z,96596.84
2019-04-03T03:20:06.839Z,96592.58
2019-04-03T03:21:11.789Z,96588.38
2019-04-03T03:22:16.971Z,96587.44
2019-04-03T03:23:23.395Z,96586.75
2019-04-03T03:24:29.346Z,96590.46
2019-04-03T03:25:33.569Z,96590.11
2019-04-03T03:26:38.768Z,96595.44
2019-04-03T03:27:42.720Z,96590.59
2019-04-03T03:28:47.272Z,96592.18
2019-04-03T03:29:51.201Z,96597.16
2019-04-03T03:31:02.022Z,96597.16
2019-04-03T03:32:11.607Z,96599.09
2019-04-03T03:33:24.617Z,96594.22
2019-04-03T03:34:12.544Z,96594.22
2019-04-03T03:35:23.115Z,96582.81
2019-04-03T03:36:24.857Z,96588.23
2019-04-03T03:37:25.090Z,96582.14
2019-04-03T03:38:28.782Z,96578.16
2019-04-03T03:39:31.773Z,96578.16
2019-04-03T03:40:34.620Z,96582.09
2019-04-03T03:41:37.784Z,96582.09
2019-04-03T03:42:40.668Z,96585.75
2019-04-03T03:43:44.002Z,96582.23
2019-04-03T03:44:50.013Z,96578.97
2019-04-03T03:45:54.033Z,96577.61
2019-04-03T03:46:59.356Z,96574.09
2019-04-03T03:48:02.242Z,96575.76
2019-04-03T03:49:05.601Z,96574.53
2019-04-03T03:50:08.427Z,96574.53
2019-04-03T03:51:11.277Z,96571.91
2019-04-03T03:52:17.236Z,96571.91
2019-04-03T03:53:20.672Z,96578.12
2019-04-03T03:54:23.576Z,96570.42
2019-04-03T03:55:26.432Z,96569.61
2019-04-03T03:56:31.328Z,96563.96
2019-04-03T03:57:37.993Z,96568.84
2019-04-03T03:58:38.882Z,96556.67
2019-04-03T03:59:42.100Z,96567.70
2019-04-03T04:00:45.969Z,96567.70
2019-04-03T04:01:49.674Z,96561.25
2019-04-03T04:02:52.713Z,96561.19
2019-04-03T04:03:56.575Z,96557.76
2019-04-03T04:04:59.558Z,96557.76
2019-04-03T04:06:02.741Z,96562.83
2019-04-03T04:07:05.908Z,96562.33
2019-04-03T04:08:11.723Z,96561.05
2019-04-03T04:09:17.155Z,96560.11
2019-04-03T04:10:23.974Z,96560.11
2019-04-03T04:11:25.060Z,96562.96
2019-04-03T04:12:29.291Z,96560.16
2019-04-03T04:13:32.425Z,96559.38
2019-04-03T04:14:35.349Z,96558.03
2019-04-03T04:15:38.270Z,96562.19
2019-04-03T04:16:41.166Z,96561.88
2019-04-03T04:17:44.004Z,96561.88
2019-04-03T04:18:47.125Z,96556.63
2019-04-03T04:19:49.950Z,96561.97
2019-04-03T04:20:52.848Z,96553.38
2019-04-03T04:21:55.698Z,96553.38
2019-04-03T04:22:58.582Z,96558.94
2019-04-03T04:24:01.415Z,96563.59
2019-04-03T04:25:06.304Z,96563.59
2019-04-03T04:26:09.510Z,96557.48
2019-04-03T04:27:12.327Z,96557.48
2019-04-03T04:28:15.242Z,96554.67
2019-04-03T04:29:18.093Z,96555.94
2019-04-03T04:30:23.720Z,96554.09
2019-04-03T04:31:27.012Z,96556.22
2019-04-03T04:32:30.052Z,96556.94
2019-04-03T04:33:33.092Z,96551.06
2019-04-03T04:34:35.939Z,96551.06
2019-04-03T04:35:41.058Z,96550.38
2019-04-03T04:36:44.503Z,96550.38
2019-04-03T04:37:47.657Z,96541.52
2019-04-03T04:38:50.750Z,96541.52
2019-04-03T04:39:53.740Z,96540.13
2019-04-03T04:40:57.119Z,96539.80
2019-04-03T04:42:03.471Z,96537.98
2019-04-03T04:43:07.355Z,96541.84
2019-04-03T04:44:10.431Z,96540.48
2019-04-03T04:45:16.871Z,96544.45
2019-04-03T04:46:19.726Z,96541.97
2019-04-03T04:47:23.093Z,96553.82
2019-04-03T04:48:26.068Z,96553.82
2019-04-03T04:49:29.104Z,96551.47
2019-04-03T04:50:33.309Z,96551.47
2019-04-03T04:51:39.363Z,96557.56
2019-04-03T04:52:44.219Z,96556.76
2019-04-03T04:53:49.096Z,96550.78
2019-04-03T04:54:52.013Z,96550.78
2019-04-03T04:55:54.856Z,96549.42
2019-04-03T04:57:05.007Z,96549.42
2019-04-03T04:58:05.972Z,96556.98
2019-04-03T04:59:13.143Z,96552.05
2019-04-03T05:00:16.309Z,96552.05
2019-04-03T05:01:19.436Z,96554.18
2019-04-03T05:02:22.713Z,96551.47
2019-04-03T05:03:26.345Z,96549.24
2019-04-03T05:04:29.405Z,96554.45
2019-04-03T05:05:32.441Z,96550.95
2019-04-03T05:06:35.435Z,96550.38
2019-04-03T05:07:38.355Z,96550.38
2019-04-03T05:08:41.351Z,96546.44
2019-04-03T05:09:44.814Z,96548.37
2019-04-03T05:10:49.133Z,96548.37
2019-04-03T05:11:52.420Z,96551.41
2019-04-03T05:12:55.269Z,96551.41
2019-04-03T05:13:58.226Z,96549.92
2019-04-03T05:15:01.059Z,96556.06
2019-04-03T05:16:04.240Z,96556.06
2019-04-03T05:17:09.855Z,96550.64
2019-04-03T05:18:15.906Z,96550.64
2019-04-03T05:19:19.621Z,96556.84
2019-04-03T05:20:23.668Z,96555.33
2019-04-03T05:21:28.708Z,96556.55
2019-04-03T05:22:34.247Z,96560.41
2019-04-03T05:23:41.800Z,96566.41
2019-04-03T05:24:44.775Z,96566.41
2019-04-03T05:25:47.848Z,96560.62
2019-04-03T05:26:50.703Z,96564.70
2019-04-03T05:28:04.530Z,96566.19
2019-04-03T05:29:08.564Z,96566.19
2019-04-03T05:43:52.760Z,96565.24
2019-04-03T05:44:56.444Z,96557.78
2019-04-03T05:45:59.263Z,96549.01
2019-04-03T05:47:02.264Z,96549.01
2019-04-03T05:48:06.082Z,96554.30
2019-04-03T05:49:10.953Z,96551.48
2019-04-03T05:50:14.009Z,96551.48
2019-04-03T05:51:17.151Z,96551.03
2019-04-03T05:52:19.974Z,96563.63
2019-04-03T05:53:22.865Z,96563.63
2019-04-03T05:54:25.753Z,96569.41
2019-04-03T05:55:29.053Z,96570.41
2019-04-03T05:56:31.944Z,96570.41
2019-04-03T05:57:34.773Z,96570.41
2019-04-03T05:58:37.683Z,96565.05
2019-04-03T05:59:43.516Z,96568.05
2019-04-03T06:00:45.147Z,96568.05
2019-04-03T06:01:48.013Z,96557.88
2019-04-03T06:02:53.129Z,96544.77
2019-04-03T06:03:56.658Z,96548.92
2019-04-03T06:04:59.814Z,96546.80
2019-04-03T06:06:05.819Z,96548.24
2019-04-03T06:07:08.112Z,96545.98
2019-04-03T06:08:13.514Z,96548.57
2019-04-03T06:09:16.333Z,96548.89
2019-04-03T06:10:19.491Z,96551.82
2019-04-03T06:11:22.564Z,96547.89
2019-04-03T06:12:25.962Z,96556.38
2019-04-03T06:13:30.369Z,96556.38
2019-04-03T06:14:36.006Z,96558.61
2019-04-03T06:15:39.708Z,96556.76
2019-04-03T06:16:42.819Z,96558.98
2019-04-03T06:17:45.707Z,96558.43
2019-04-03T06:18:48.772Z,96557.63
2019-04-03T06:19:52.076Z,96557.63
2019-04-03T06:20:54.951Z,96552.95
2019-04-03T06:21:57.871Z,96552.95
2019-04-03T06:23:00.932Z,96549.84
2019-04-03T06:24:04.063Z,96557.56
2019-04-03T06:25:06.999Z,96557.56
2019-04-03T06:26:10.063Z,96557.56
2019-04-03T06:27:13.408Z,96561.50
2019-04-03T06:28:16.359Z,96561.50
2019-04-03T06:29:19.651Z,96553.78
2019-04-03T06:30:24.319Z,96553.87
2019-04-03T06:31:27.741Z,96553.87
2019-04-03T06:32:31.080Z,96556.22
2019-04-03T06:33:35.818Z,96556.36
2019-04-03T06:34:42.161Z,96554.45
2019-04-03T06:35:45.356Z,96554.45
2019-04-03T06:36:49.740Z,96552.82
2019-04-03T06:37:53.165Z,96549.98
2019-04-03T06:38:57.410Z,96553.64
2019-04-03T06:40:03.276Z,96553.42
2019-04-03T06:41:09.143Z,96548.93
2019-04-03T06:42:15.381Z,96548.93
2019-04-03T06:43:18.336Z,96548.35
2019-04-03T06:44:22.635Z,96545.95
2019-04-03T06:45:26.179Z,96544.86
2019-04-03T06:46:30.448Z,96544.86
2019-04-03T06:47:33.610Z,96546.71
2019-04-03T06:48:39.288Z,96546.39
2019-04-03T06:49:42.203Z,96549.88
2019-04-03T06:50:48.304Z,96544.77
2019-04-03T06:51:52.065Z,96544.64
2019-04-03T06:52:55.960Z,96546.63
2019-04-03T06:53:59.811Z,96544.12
2019-04-03T06:55:03.998Z,96544.12
2019-04-03T06:56:08.662Z,96542.91
2019-04-03T06:57:13.919Z,96535.09
2019-04-03T06:58:19.786Z,96541.84
2019-04-03T06:59:22.806Z,96537.34
2019-04-03T07:00:32.493Z,96537.34
2019-04-03T07:01:35.656Z,96536.81
2019-04-03T07:02:38.958Z,96545.48
2019-04-03T07:03:42.276Z,96543.55
2019-04-03T07:04:47.815Z,96543.33
2019-04-03T07:05:53.218Z,96545.77
2019-04-03T07:06:56.884Z,96545.77
2019-04-03T07:08:01.299Z,96547.94
2019-04-03T07:50:54.035Z,96553.12
2019-04-03T07:51:57.616Z,96551.73
2019-04-03T07:53:00.663Z,96555.34
2019-04-03T07:54:04.759Z,96552.98
2019-04-03T07:55:07.858Z,96552.98
2019-04-03T07:56:12.106Z,96545.66
2019-04-03T07:57:16.389Z,96540.56
2019-04-03T07:58:20.896Z,96545.95
2019-04-03T07:59:28.505Z,96540.87
2019-04-03T08:00:31.788Z,96550.02
2019-04-03T08:01:35.004Z,96547.08
2019-04-03T08:02:38.069Z,96547.08
2019-04-03T08:03:41.589Z,96550.03
2019-04-03T08:04:46.221Z,96550.30
2019-04-03T08:05:55.416Z,96544.52
2019-04-03T08:06:58.600Z,96546.84
2019-04-03T08:08:09.035Z,96546.84
2019-04-03T08:09:12.243Z,96543.86
2019-04-03T08:10:15.515Z,96543.86
2019-04-03T08:11:25.779Z,96546.75
2019-04-03T08:12:29.974Z,96546.75
2019-04-03T08:13:32.824Z,96544.45
2019-04-03T08:14:40.478Z,96540.75
2019-04-03T08:15:44.506Z,96544.86
2019-04-03T08:16:49.701Z,96548.44
2019-04-03T08:17:56.959Z,96552.47
2019-04-03T08:19:01.790Z,96555.84
2019-04-03T08:20:04.761Z,96547.89
2019-04-03T08:21:08.285Z,96550.95
2019-04-03T08:22:11.179Z,96544.68
2019-04-03T08:23:13.241Z,96544.68
2019-04-03T08:24:17.162Z,96544.27
2019-04-03T08:25:20.693Z,96548.06
2019-04-03T08:26:27.247Z,96548.06
2019-04-03T08:27:31.327Z,96544.55
2019-04-03T08:28:34.369Z,96547.63
2019-04-03T08:29:40.097Z,96547.63
2019-04-03T08:30:46.000Z,96548.33
2019-04-03T08:31:50.954Z,96553.14
2019-04-03T08:32:56.243Z,96551.20
2019-04-03T08:34:13.967Z,96553.36
2019-04-03T08:35:22.482Z,96540.84
2019-04-03T08:36:25.045Z,96553.09
2019-04-03T08:37:30.170Z,96556.80
2019-04-03T08:38:34.144Z,96555.89
2019-04-03T08:39:36.930Z,96555.89
2019-04-03T08:40:41.462Z,96562.90
2019-04-03T08:41:46.823Z,96571.44
2019-04-03T08:42:50.005Z,96571.44
2019-04-03T08:43:52.815Z,96541.85
2019-04-03T08:44:55.773Z,96573.59
2019-04-03T08:45:59.089Z,96531.12
2019-04-03T08:47:02.073Z,96572.28
2019-04-03T08:48:06.344Z,96573.98
2019-04-03T08:49:10.757Z,96580.81
2019-04-03T08:50:13.778Z,96587.58
2019-04-03T08:51:18.768Z,96576.73
2019-04-03T08:52:22.141Z,96576.73
2019-04-03T08:53:25.189Z,96583.22
2019-04-03T08:54:28.023Z,96573.77
2019-04-03T08:55:30.758Z,96603.57
2019-04-03T08:56:34.091Z,96592.05
2019-04-03T08:57:39.973Z,96614.00
2019-04-03T08:58:48.841Z,96605.62
2019-04-03T08:59:53.876Z,96605.62
2019-04-03T09:00:56.626Z,96611.77
2019-04-03T09:01:59.390Z,96606.95
2019-04-03T09:03:03.624Z,96606.95
2019-04-03T09:04:06.972Z,96621.94
2019-04-03T09:05:13.564Z,96625.78
2019-04-03T09:06:17.069Z,96625.78
2019-04-03T09:07:21.517Z,96628.82
2019-04-03T09:08:26.497Z,96626.61
2019-04-03T09:09:35.804Z,96627.73
2019-04-03T09:10:39.400Z,96629.53
2019-04-03T09:11:42.607Z,96627.31
2019-04-03T09:12:45.554Z,96625.64
2019-04-03T09:13:55.817Z,96625.64
2019-04-03T09:15:00.029Z,96623.06
2019-04-03T09:16:05.882Z,96623.06
2019-04-03T09:17:11.359Z,96620.12
2019-04-03T09:18:15.585Z,96620.12
2019-04-03T09:19:22.048Z,96628.80
2019-04-03T09:20:25.005Z,96631.97
2019-04-03T09:21:31.021Z,96631.97
2019-04-03T09:22:36.672Z,96628.56
2019-04-03T09:23:40.073Z,96628.56
2019-04-03T09:24:50.325Z,96632.45
2019-04-03T09:25:53.357Z,96622.69
2019-04-03T09:26:59.181Z,96625.33
2019-04-03T09:28:04.294Z,96627.15
2019-04-03T09:29:07.374Z,96628.73
2019-04-03T09:30:15.472Z,96620.81
2019-04-03T09:31:19.505Z,96626.55
2019-04-03T09:32:22.692Z,96626.55
2019-04-03T09:33:29.896Z,96619.56
2019-04-03T09:34:35.576Z,96622.28
2019-04-03T09:35:42.736Z,96621.70
2019-04-03T09:36:44.871Z,96621.70
2019-04-03T09:37:48.117Z,96618.18
2019-04-03T09:38:53.166Z,96618.18
2019-04-03T09:40:02.084Z,96624.27
2019-04-03T09:41:02.935Z,96627.11
2019-04-03T09:42:06.085Z,96622.34
2019-04-03T09:43:13.677Z,96620.73
2019-04-03T09:44:19.512Z,96620.22
2019-04-03T09:45:22.583Z,96623.50
2019-04-03T09:46:25.747Z,96623.50
2019-04-03T09:47:35.816Z,96627.73
2019-04-03T09:48:39.797Z,96627.73
2019-04-03T09:49:44.176Z,96633.03
2019-04-03T09:50:53.177Z,96623.99
2019-04-03T09:51:57.571Z,96626.73
2019-04-03T09:53:02.712Z,96622.34
2019-04-03T09:54:05.217Z,96623.91
2019-04-03T09:55:12.111Z,96625.36
2019-04-03T09:56:15.406Z,96629.75
2019-04-03T09:57:22.106Z,96628.38
2019-04-03T09:58:25.293Z,96633.47
2019-04-03T09:59:29.213Z,96635.39
2019-04-03T10:00:31.967Z,96633.16
2019-04-03T10:01:34.689Z,96633.16
2019-04-03T10:02:37.813Z,96629.35
2019-04-03T10:03:40.611Z,96633.50
2019-04-03T10:04:43.457Z,96625.95
2019-04-03T10:05:49.575Z,96635.52
2019-04-03T10:06:52.875Z,96632.23
2019-04-03T10:07:55.684Z,96632.23
2019-04-03T10:08:58.707Z,96630.20
2019-04-03T10:10:01.901Z,96637.27
2019-04-03T10:11:08.565Z,96637.27
2019-04-03T10:12:11.751Z,96640.88
2019-04-03T10:13:14.622Z,96640.85
2019-04-03T10:14:20.630Z,96632.75
2019-04-03T10:15:24.952Z,96630.72
2019-04-03T10:16:30.149Z,96630.72
2019-04-03T10:17:32.920Z,96636.69
2019-04-03T10:18:36.192Z,96632.23
2019-04-03T10:19:38.967Z,96635.91
2019-04-03T10:20:44.930Z,96635.27
2019-04-03T10:21:51.739Z,96635.27
2019-04-03T10:22:56.259Z,96628.80
2019-04-03T10:24:00.379Z,96629.50
2019-04-03T10:25:05.447Z,96631.06
2019-04-03T10:26:12.429Z,96631.06
2019-04-03T10:27:15.547Z,96631.91
2019-04-03T10:28:18.959Z,96632.95
2019-04-03T10:29:24.535Z,96630.05
2019-04-03T10:42:38.086Z,96643.67
2019-04-03T10:43:40.684Z,96639.60
2019-04-03T10:44:50.193Z,96637.79
2019-04-03T10:45:53.010Z,96636.80
2019-04-03T10:46:58.880Z,96637.86
2019-04-03T10:48:03.336Z,96639.37
2019-04-03T10:49:06.347Z,96639.05
2019-04-03T10:50:12.012Z,96637.14
2019-04-03T10:51:14.715Z,96637.84
2019-04-03T10:52:20.574Z,96637.84
2019-04-03T10:53:29.790Z,96644.89
2019-04-03T10:54:32.860Z,96630.05
2019-04-03T10:55:35.734Z,96627.47
2019-04-03T10:56:38.790Z,96622.67
2019-04-03T10:57:44.117Z,96621.45
2019-04-03T10:58:49.720Z,96621.45
2019-04-03T10:59:54.974Z,96617.73
2019-04-03T11:00:59.067Z,96613.68
2019-04-03T11:02:03.516Z,96613.68
2019-04-03T11:03:06.311Z,96606.05
2019-04-03T11:04:12.204Z,96606.05
2019-04-03T11:05:15.309Z,96602.93
2019-04-03T11:06:24.143Z,96604.59
2019-04-03T11:07:27.830Z,96610.02
2019-04-03T11:08:30.661Z,96612.02
2019-04-03T11:09:33.643Z,96602.21
2019-04-03T11:10:36.723Z,96608.77
2019-04-03T11:11:39.487Z,96603.14
2019-04-03T11:12:43.303Z,96604.15
2019-04-03T11:13:46.170Z,96604.15
2019-04-03T11:14:49.432Z,96606.28
2019-04-03T11:15:52.498Z,96604.25
2019-04-03T11:16:55.346Z,96596.68
2019-04-03T11:17:58.312Z,96606.17
2019-04-03T11:19:05.039Z,96603.14
2019-04-03T11:20:13.299Z,96600.42
2019-04-03T11:21:16.085Z,96601.79
2019-04-03T11:22:21.213Z,96600.31
2019-04-03T11:23:38.401Z,96592.64
2019-04-03T11:24:30.638Z,96585.78
2019-04-03T11:25:33.321Z,96585.78
2019-04-03T11:26:36.205Z,96572.58
2019-04-03T11:28:51.897Z,96565.39
2019-04-03T11:29:58.184Z,96568.33
2019-04-03T11:30:55.515Z,96569.79
2019-04-03T11:31:01.917Z,96568.33
2019-04-03T11:32:09.918Z,96564.62
2019-04-03T11:33:14.832Z,96553.11
2019-04-03T11:34:19.940Z,96553.11
2019-04-03T11:35:24.126Z,96548.11
2019-04-03T11:36:31.819Z,96543.59
2019-04-03T11:37:35.124Z,96539.98
2019-04-03T11:38:39.207Z,96536.34
2019-04-03T11:39:44.073Z,96532.02
2019-04-03T11:40:47.780Z,96532.02
2019-04-03T11:41:54.463Z,96528.67
2019-04-03T11:42:56.123Z,96535.50
2019-04-03T11:43:59.445Z,96525.74
2019-04-03T11:45:04.356Z,96526.09
2019-04-03T11:46:07.359Z,96519.27
2019-04-03T11:47:12.352Z,96508.84
2019-04-03T11:48:17.300Z,96508.84
2019-04-03T11:49:20.784Z,96499.58
2019-04-03T11:50:25.358Z,96497.09
2019-04-03T11:51:29.630Z,96488.30
2019-04-03T11:52:33.109Z,96494.95
2019-04-03T11:53:38.048Z,96497.44
2019-04-03T11:54:41.624Z,96513.93
2019-04-03T11:55:44.495Z,96513.93
2019-04-03T11:56:48.006Z,96513.28
2019-04-03T11:57:51.427Z,96513.02
2019-04-03T11:58:59.653Z,96525.95
2019-04-03T12:00:09.743Z,96522.83
2019-04-03T12:01:16.800Z,96525.48
2019-04-03T12:02:20.628Z,96525.48
2019-04-03T12:03:23.713Z,96531.94
2019-04-03T12:04:26.866Z,96540.53
2019-04-03T12:05:30.459Z,96543.07
2019-04-03T12:06:41.141Z,96539.00
2019-04-03T12:07:44.499Z,96531.87
2019-04-03T12:08:48.160Z,96525.06
2019-04-03T12:09:52.428Z,96526.87
2019-04-03T12:10:55.250Z,96516.13
2019-04-03T12:11:58.023Z,96513.38
2019-04-03T12:13:03.602Z,96509.16
2019-04-03T12:14:15.012Z,96514.36
2019-04-03T12:15:21.957Z,96514.36
2019-04-03T12:16:26.167Z,96510.55
2019-04-03T12:17:31.046Z,96510.55
2019-04-03T12:18:41.191Z,96504.91
2019-04-03T12:19:46.673Z,96505.89
2019-04-03T12:20:50.480Z,96500.67
2019-04-03T12:22:02.414Z,96511.21
2019-04-03T12:23:08.406Z,96511.21
2019-04-03T12:24:13.984Z,96522.86
2019-04-03T12:25:16.753Z,96522.45
2019-04-03T12:26:23.366Z,96525.04
2019-04-03T12:27:29.529Z,96525.75
2019-04-03T12:28:36.259Z,96527.52
2019-04-03T12:29:41.080Z,96526.16
2019-04-03T12:30:47.103Z,96526.16
2019-04-03T12:31:50.239Z,96520.39
2019-04-03T12:33:00.421Z,96520.13
2019-04-03T12:34:06.429Z,96519.83
2019-04-03T12:35:09.820Z,96511.02
2019-04-03T12:36:14.342Z,96506.50
2019-04-03T12:37:18.682Z,96508.23
2019-04-03T12:38:22.477Z,96508.23
2019-04-03T12:39:29.703Z,96505.19
2019-04-03T12:40:34.142Z,96506.77
2019-04-03T12:41:38.029Z,96515.03
2019-04-03T12:42:45.775Z,96512.41
2019-04-03T12:43:49.985Z,96512.41
2019-04-03T12:44:55.349Z,96512.38
2019-04-03T12:46:02.260Z,96514.45
2019-04-03T12:47:05.637Z,96514.45
2019-04-03T12:48:08.898Z,96511.34
2019-04-03T12:49:12.785Z,96509.25
2019-04-03T12:50:22.079Z,96499.90
2019-04-03T12:51:24.869Z,96497.22
2019-04-03T12:52:34.852Z,96497.22
2019-04-03T12:53:37.275Z,96492.05
2019-04-03T12:54:40.127Z,96493.69
2019-04-03T12:55:43.163Z,96494.98
2019-04-03T12:56:50.923Z,96494.98
2019-04-03T12:57:58.462Z,96499.31
2019-04-03T12:59:01.857Z,96494.16
2019-04-03T13:00:05.419Z,96494.16
2019-04-03T13:01:11.572Z,96496.52
2019-04-03T13:02:19.078Z,96502.35
2019-04-03T13:03:24.213Z,96504.52
2019-04-03T13:04:31.216Z,96507.55
2019-04-03T13:05:39.873Z,96504.19
2019-04-03T13:06:42.692Z,96501.94
2019-04-03T13:07:47.204Z,96501.94
2019-04-03T13:08:50.595Z,96497.84
2019-04-03T13:09:53.591Z,96497.84
2019-04-03T13:10:58.144Z,96495.33
2019-04-03T13:12:03.971Z,96498.58
2019-04-03T13:13:06.799Z,96493.94
2019-04-03T13:14:13.516Z,96483.39
2019-04-03T13:15:13.924Z,96491.62
2019-04-03T13:16:17.031Z,96490.17
2019-04-03T13:17:21.147Z,96490.17
2019-04-03T13:18:24.371Z,96484.20
2019-04-03T13:19:27.095Z,96486.83
2019-04-03T13:20:30.438Z,96486.83
2019-04-03T13:21:33.287Z,96480.77
2019-04-03T13:22:36.550Z,96478.38
2019-04-03T13:23:46.163Z,96478.38
2019-04-03T13:24:49.692Z,96478.11
2019-04-03T13:25:53.173Z,96476.58
2019-04-03T13:26:58.021Z,96479.73
2019-04-03T13:28:03.923Z,96479.73
2019-04-03T13:29:08.588Z,96473.59
2019-04-03T13:30:13.745Z,96460.43
2019-04-03T13:31:19.789Z,96460.43
2019-04-03T13:32:26.412Z,96462.92
2019-04-03T13:33:32.472Z,96465.43
2019-04-03T13:34:38.112Z,96465.43
2019-04-03T13:35:44.896Z,96453.89
2019-04-03T13:36:51.368Z,96448.30
2019-04-03T13:37:56.144Z,96442.13
2019-04-03T13:39:02.206Z,96444.57
2019-04-03T13:40:07.489Z,96444.57
2019-04-03T13:41:11.285Z,96444.02
2019-04-03T13:42:17.441Z,96444.27